sensor_id;sensor_type;location;lat;lon;timestamp;P1;durP1;ratioP1;P2;durP2;ratioP2
20348;SDS011;10332;50.208;18.988;2022-07-22T00:00:31;6.28;;;4.00;;
20348;SDS011;10332;50.208;18.988;2022-07-22T00:03:03;5.93;;;4.10;;
20348;SDS011;10332;50.208;18.988;2022-07-22T00:05:30;7.75;;;3.90;;
20348;SDS011;10332;50.208;18.988;2022-07-22T00:07:58;4.90;;;3.53;;
20348;SDS011;10332;50.208;18.988;2022-07-22T00:10:27;6.03;;;3.50;;
20348;SDS011;10332;50.208;18.988;2022-07-22T00:12:54;4.82;;;3.70;;
20348;SDS011;10332;50.208;18.988;2022-07-22T00:15:22;4.93;;;3.70;;
20348;SDS011;10332;50.208;18.988;2022-07-22T00:17:49;5.40;;;3.88;;
20348;SDS011;10332;50.208;18.988;2022-07-22T00:20:17;6.63;;;4.20;;
20348;SDS011;10332;50.208;18.988;2022-07-22T00:22:45;5.45;;;3.40;;
20348;SDS011;10332;50.208;18.988;2022-07-22T00:25:13;3.72;;;3.33;;
20348;SDS011;10332;50.208;18.988;2022-07-22T00:27:40;5.90;;;3.95;;
20348;SDS011;10332;50.208;18.988;2022-07-22T00:30:08;6.43;;;4.05;;
20348;SDS011;10332;50.208;18.988;2022-07-22T00:32:36;6.35;;;3.83;;
20348;SDS011;10332;50.208;18.988;2022-07-22T00:35:04;6.18;;;3.40;;
20348;SDS011;10332;50.208;18.988;2022-07-22T00:37:32;4.72;;;4.03;;
20348;SDS011;10332;50.208;18.988;2022-07-22T00:40:00;5.30;;;3.42;;
20348;SDS011;10332;50.208;18.988;2022-07-22T00:42:27;6.00;;;3.08;;
20348;SDS011;10332;50.208;18.988;2022-07-22T00:44:55;4.43;;;3.58;;
20348;SDS011;10332;50.208;18.988;2022-07-22T00:47:23;5.28;;;3.10;;
20348;SDS011;10332;50.208;18.988;2022-07-22T00:49:50;3.15;;;2.60;;
20348;SDS011;10332;50.208;18.988;2022-07-22T00:52:18;4.10;;;2.63;;
20348;SDS011;10332;50.208;18.988;2022-07-22T00:54:47;3.65;;;2.88;;
20348;SDS011;10332;50.208;18.988;2022-07-22T00:57:14;3.45;;;2.60;;
20348;SDS011;10332;50.208;18.988;2022-07-22T00:59:42;5.15;;;3.58;;
20348;SDS011;10332;50.208;18.988;2022-07-22T01:02:10;5.35;;;3.55;;
20348;SDS011;10332;50.208;18.988;2022-07-22T01:04:37;3.40;;;3.00;;
20348;SDS011;10332;50.208;18.988;2022-07-22T01:07:06;5.53;;;3.67;;
20348;SDS011;10332;50.208;18.988;2022-07-22T01:09:35;7.70;;;4.55;;
20348;SDS011;10332;50.208;18.988;2022-07-22T01:12:03;6.18;;;4.10;;
20348;SDS011;10332;50.208;18.988;2022-07-22T01:14:31;4.88;;;3.60;;
20348;SDS011;10332;50.208;18.988;2022-07-22T01:16:58;4.20;;;3.20;;
20348;SDS011;10332;50.208;18.988;2022-07-22T01:19:26;3.92;;;3.17;;
20348;SDS011;10332;50.208;18.988;2022-07-22T01:21:53;6.78;;;3.35;;
20348;SDS011;10332;50.208;18.988;2022-07-22T01:24:20;3.70;;;2.50;;
20348;SDS011;10332;50.208;18.988;2022-07-22T01:26:48;6.03;;;3.75;;
20348;SDS011;10332;50.208;18.988;2022-07-22T01:29:15;5.78;;;3.78;;
20348;SDS011;10332;50.208;18.988;2022-07-22T01:31:43;4.35;;;3.30;;
20348;SDS011;10332;50.208;18.988;2022-07-22T01:34:10;5.63;;;3.72;;
20348;SDS011;10332;50.208;18.988;2022-07-22T01:36:37;4.07;;;3.22;;
20348;SDS011;10332;50.208;18.988;2022-07-22T01:39:05;3.28;;;2.80;;
20348;SDS011;10332;50.208;18.988;2022-07-22T01:41:32;3.85;;;3.05;;
20348;SDS011;10332;50.208;18.988;2022-07-22T01:44:00;4.85;;;3.63;;
20348;SDS011;10332;50.208;18.988;2022-07-22T01:46:27;7.22;;;4.55;;
20348;SDS011;10332;50.208;18.988;2022-07-22T01:48:55;7.28;;;4.38;;
20348;SDS011;10332;50.208;18.988;2022-07-22T01:51:23;5.03;;;4.13;;
20348;SDS011;10332;50.208;18.988;2022-07-22T01:53:50;5.03;;;3.90;;
20348;SDS011;10332;50.208;18.988;2022-07-22T01:56:17;6.90;;;4.25;;
20348;SDS011;10332;50.208;18.988;2022-07-22T01:58:45;7.43;;;3.95;;
20348;SDS011;10332;50.208;18.988;2022-07-22T02:01:12;5.00;;;3.70;;
20348;SDS011;10332;50.208;18.988;2022-07-22T02:03:40;8.48;;;4.35;;
20348;SDS011;10332;50.208;18.988;2022-07-22T02:06:07;5.78;;;4.20;;
20348;SDS011;10332;50.208;18.988;2022-07-22T02:08:35;7.03;;;4.10;;
20348;SDS011;10332;50.208;18.988;2022-07-22T02:11:02;5.97;;;4.63;;
20348;SDS011;10332;50.208;18.988;2022-07-22T02:13:29;4.78;;;3.90;;
20348;SDS011;10332;50.208;18.988;2022-07-22T02:15:57;6.82;;;4.40;;
20348;SDS011;10332;50.208;18.988;2022-07-22T02:18:24;5.70;;;4.00;;
20348;SDS011;10332;50.208;18.988;2022-07-22T02:20:52;7.35;;;4.72;;
20348;SDS011;10332;50.208;18.988;2022-07-22T02:23:19;6.43;;;4.63;;
20348;SDS011;10332;50.208;18.988;2022-07-22T02:25:47;8.57;;;4.50;;
20348;SDS011;10332;50.208;18.988;2022-07-22T02:28:14;8.57;;;4.95;;
20348;SDS011;10332;50.208;18.988;2022-07-22T02:30:42;8.27;;;5.40;;
20348;SDS011;10332;50.208;18.988;2022-07-22T02:33:09;7.45;;;5.25;;
20348;SDS011;10332;50.208;18.988;2022-07-22T02:35:36;11.50;;;6.90;;
20348;SDS011;10332;50.208;18.988;2022-07-22T02:38:05;10.23;;;6.90;;
20348;SDS011;10332;50.208;18.988;2022-07-22T02:40:34;12.52;;;7.10;;
20348;SDS011;10332;50.208;18.988;2022-07-22T02:43:01;11.30;;;6.70;;
20348;SDS011;10332;50.208;18.988;2022-07-22T02:45:32;9.20;;;6.38;;
20348;SDS011;10332;50.208;18.988;2022-07-22T02:48:00;9.90;;;6.15;;
20348;SDS011;10332;50.208;18.988;2022-07-22T02:50:28;13.27;;;7.18;;
20348;SDS011;10332;50.208;18.988;2022-07-22T02:52:55;9.68;;;6.57;;
20348;SDS011;10332;50.208;18.988;2022-07-22T02:55:22;11.18;;;6.68;;
20348;SDS011;10332;50.208;18.988;2022-07-22T02:57:50;12.15;;;7.68;;
20348;SDS011;10332;50.208;18.988;2022-07-22T03:00:17;10.52;;;6.68;;
20348;SDS011;10332;50.208;18.988;2022-07-22T03:02:46;10.15;;;7.10;;
20348;SDS011;10332;50.208;18.988;2022-07-22T03:05:14;9.85;;;6.40;;
20348;SDS011;10332;50.208;18.988;2022-07-22T03:07:41;9.00;;;6.70;;
20348;SDS011;10332;50.208;18.988;2022-07-22T03:10:09;11.80;;;7.55;;
20348;SDS011;10332;50.208;18.988;2022-07-22T03:12:36;11.98;;;7.53;;
20348;SDS011;10332;50.208;18.988;2022-07-22T03:15:04;11.60;;;7.68;;
20348;SDS011;10332;50.208;18.988;2022-07-22T03:17:33;10.73;;;7.53;;
20348;SDS011;10332;50.208;18.988;2022-07-22T03:20:05;8.80;;;7.72;;
20348;SDS011;10332;50.208;18.988;2022-07-22T03:22:35;10.82;;;7.80;;
20348;SDS011;10332;50.208;18.988;2022-07-22T03:25:03;9.13;;;7.28;;
20348;SDS011;10332;50.208;18.988;2022-07-22T03:27:31;12.52;;;8.43;;
20348;SDS011;10332;50.208;18.988;2022-07-22T03:29:59;12.27;;;8.25;;
20348;SDS011;10332;50.208;18.988;2022-07-22T03:32:26;11.50;;;8.57;;
20348;SDS011;10332;50.208;18.988;2022-07-22T03:34:53;10.50;;;7.85;;
20348;SDS011;10332;50.208;18.988;2022-07-22T03:37:29;12.75;;;8.30;;
20348;SDS011;10332;50.208;18.988;2022-07-22T03:39:56;11.98;;;8.10;;
20348;SDS011;10332;50.208;18.988;2022-07-22T03:42:23;11.90;;;8.48;;
20348;SDS011;10332;50.208;18.988;2022-07-22T03:44:51;13.93;;;8.13;;
20348;SDS011;10332;50.208;18.988;2022-07-22T03:47:18;9.65;;;7.55;;
20348;SDS011;10332;50.208;18.988;2022-07-22T03:49:48;13.35;;;8.52;;
20348;SDS011;10332;50.208;18.988;2022-07-22T03:52:16;8.55;;;7.10;;
20348;SDS011;10332;50.208;18.988;2022-07-22T03:54:43;12.27;;;7.90;;
20348;SDS011;10332;50.208;18.988;2022-07-22T03:57:11;8.73;;;7.22;;
20348;SDS011;10332;50.208;18.988;2022-07-22T03:59:38;10.93;;;7.25;;
20348;SDS011;10332;50.208;18.988;2022-07-22T04:02:06;9.40;;;7.50;;
20348;SDS011;10332;50.208;18.988;2022-07-22T04:04:33;9.45;;;7.50;;
20348;SDS011;10332;50.208;18.988;2022-07-22T04:07:00;9.10;;;7.25;;
20348;SDS011;10332;50.208;18.988;2022-07-22T04:09:28;10.05;;;7.32;;
20348;SDS011;10332;50.208;18.988;2022-07-22T04:11:55;8.20;;;6.68;;
20348;SDS011;10332;50.208;18.988;2022-07-22T04:14:22;9.88;;;7.55;;
20348;SDS011;10332;50.208;18.988;2022-07-22T04:16:50;9.80;;;7.20;;
20348;SDS011;10332;50.208;18.988;2022-07-22T04:19:17;7.43;;;6.63;;
20348;SDS011;10332;50.208;18.988;2022-07-22T04:21:45;10.88;;;8.10;;
20348;SDS011;10332;50.208;18.988;2022-07-22T04:24:12;10.13;;;7.50;;
20348;SDS011;10332;50.208;18.988;2022-07-22T04:26:39;10.20;;;7.13;;
20348;SDS011;10332;50.208;18.988;2022-07-22T04:29:07;10.50;;;7.18;;
20348;SDS011;10332;50.208;18.988;2022-07-22T04:31:34;9.52;;;7.47;;
20348;SDS011;10332;50.208;18.988;2022-07-22T04:34:01;10.68;;;7.75;;
20348;SDS011;10332;50.208;18.988;2022-07-22T04:36:29;9.43;;;6.93;;
20348;SDS011;10332;50.208;18.988;2022-07-22T04:38:56;10.32;;;7.55;;
20348;SDS011;10332;50.208;18.988;2022-07-22T04:41:24;11.15;;;7.00;;
20348;SDS011;10332;50.208;18.988;2022-07-22T04:43:52;11.00;;;7.10;;
20348;SDS011;10332;50.208;18.988;2022-07-22T04:46:19;6.93;;;6.28;;
20348;SDS011;10332;50.208;18.988;2022-07-22T04:48:47;8.93;;;8.02;;
20348;SDS011;10332;50.208;18.988;2022-07-22T04:51:15;10.30;;;7.13;;
20348;SDS011;10332;50.208;18.988;2022-07-22T04:53:42;7.60;;;6.45;;
20348;SDS011;10332;50.208;18.988;2022-07-22T04:56:15;7.53;;;6.10;;
20348;SDS011;10332;50.208;18.988;2022-07-22T04:58:42;8.68;;;6.70;;
20348;SDS011;10332;50.208;18.988;2022-07-22T05:01:10;6.78;;;5.90;;
20348;SDS011;10332;50.208;18.988;2022-07-22T05:03:38;6.75;;;5.70;;
20348;SDS011;10332;50.208;18.988;2022-07-22T05:06:06;5.45;;;4.90;;
20348;SDS011;10332;50.208;18.988;2022-07-22T05:08:34;9.85;;;7.15;;
20348;SDS011;10332;50.208;18.988;2022-07-22T05:11:02;6.80;;;6.07;;
20348;SDS011;10332;50.208;18.988;2022-07-22T05:13:29;7.22;;;6.28;;
20348;SDS011;10332;50.208;18.988;2022-07-22T05:15:57;9.50;;;6.35;;
20348;SDS011;10332;50.208;18.988;2022-07-22T05:18:30;8.02;;;6.63;;
20348;SDS011;10332;50.208;18.988;2022-07-22T05:20:58;7.32;;;6.55;;
20348;SDS011;10332;50.208;18.988;2022-07-22T05:23:26;6.75;;;5.60;;
20348;SDS011;10332;50.208;18.988;2022-07-22T05:25:54;7.72;;;6.90;;
20348;SDS011;10332;50.208;18.988;2022-07-22T05:28:21;7.40;;;6.53;;
20348;SDS011;10332;50.208;18.988;2022-07-22T05:30:49;7.57;;;6.47;;
20348;SDS011;10332;50.208;18.988;2022-07-22T05:33:17;6.57;;;5.93;;
20348;SDS011;10332;50.208;18.988;2022-07-22T05:35:44;7.55;;;6.00;;
20348;SDS011;10332;50.208;18.988;2022-07-22T05:38:11;7.00;;;6.30;;
20348;SDS011;10332;50.208;18.988;2022-07-22T05:40:39;8.88;;;6.85;;
20348;SDS011;10332;50.208;18.988;2022-07-22T05:43:06;7.75;;;6.20;;
20348;SDS011;10332;50.208;18.988;2022-07-22T05:45:34;8.38;;;6.50;;
20348;SDS011;10332;50.208;18.988;2022-07-22T05:48:01;6.13;;;5.15;;
20348;SDS011;10332;50.208;18.988;2022-07-22T05:50:29;7.00;;;5.97;;
20348;SDS011;10332;50.208;18.988;2022-07-22T05:52:56;5.68;;;4.70;;
20348;SDS011;10332;50.208;18.988;2022-07-22T05:55:24;5.30;;;4.72;;
20348;SDS011;10332;50.208;18.988;2022-07-22T05:57:51;6.47;;;5.85;;
20348;SDS011;10332;50.208;18.988;2022-07-22T06:00:18;5.97;;;5.38;;
20348;SDS011;10332;50.208;18.988;2022-07-22T06:02:46;7.82;;;6.30;;
20348;SDS011;10332;50.208;18.988;2022-07-22T06:05:13;9.65;;;7.43;;
20348;SDS011;10332;50.208;18.988;2022-07-22T06:08:01;7.40;;;6.60;;
20348;SDS011;10332;50.208;18.988;2022-07-22T06:10:29;6.55;;;5.95;;
20348;SDS011;10332;50.208;18.988;2022-07-22T06:12:57;8.73;;;6.40;;
20348;SDS011;10332;50.208;18.988;2022-07-22T06:15:24;7.30;;;6.60;;
20348;SDS011;10332;50.208;18.988;2022-07-22T06:17:52;7.35;;;6.38;;
20348;SDS011;10332;50.208;18.988;2022-07-22T06:20:20;7.72;;;6.32;;
20348;SDS011;10332;50.208;18.988;2022-07-22T06:22:47;7.72;;;6.93;;
20348;SDS011;10332;50.208;18.988;2022-07-22T06:25:15;9.23;;;7.35;;
20348;SDS011;10332;50.208;18.988;2022-07-22T06:28:03;8.35;;;7.15;;
20348;SDS011;10332;50.208;18.988;2022-07-22T06:30:30;7.93;;;6.05;;
20348;SDS011;10332;50.208;18.988;2022-07-22T06:32:57;7.65;;;6.88;;
20348;SDS011;10332;50.208;18.988;2022-07-22T06:35:27;8.73;;;7.30;;
20348;SDS011;10332;50.208;18.988;2022-07-22T06:37:54;10.68;;;6.95;;
20348;SDS011;10332;50.208;18.988;2022-07-22T06:40:33;9.15;;;6.60;;
20348;SDS011;10332;50.208;18.988;2022-07-22T06:43:01;9.07;;;6.60;;
20348;SDS011;10332;50.208;18.988;2022-07-22T06:45:30;8.88;;;7.97;;
20348;SDS011;10332;50.208;18.988;2022-07-22T06:47:58;9.68;;;7.25;;
20348;SDS011;10332;50.208;18.988;2022-07-22T06:50:25;8.77;;;7.68;;
20348;SDS011;10332;50.208;18.988;2022-07-22T06:52:55;11.60;;;8.35;;
20348;SDS011;10332;50.208;18.988;2022-07-22T06:55:22;9.00;;;7.47;;
20348;SDS011;10332;50.208;18.988;2022-07-22T06:57:50;8.13;;;7.18;;
20348;SDS011;10332;50.208;18.988;2022-07-22T07:00:17;12.18;;;8.05;;
20348;SDS011;10332;50.208;18.988;2022-07-22T07:02:45;11.43;;;7.20;;
20348;SDS011;10332;50.208;18.988;2022-07-22T07:05:13;8.02;;;6.88;;
20348;SDS011;10332;50.208;18.988;2022-07-22T07:07:46;11.45;;;7.13;;
20348;SDS011;10332;50.208;18.988;2022-07-22T07:10:13;9.18;;;7.00;;
20348;SDS011;10332;50.208;18.988;2022-07-22T07:12:42;7.45;;;6.10;;
20348;SDS011;10332;50.208;18.988;2022-07-22T07:15:10;12.18;;;7.10;;
20348;SDS011;10332;50.208;18.988;2022-07-22T07:17:54;7.95;;;7.15;;
20348;SDS011;10332;50.208;18.988;2022-07-22T07:20:23;8.55;;;7.40;;
20348;SDS011;10332;50.208;18.988;2022-07-22T07:22:52;7.88;;;6.72;;
20348;SDS011;10332;50.208;18.988;2022-07-22T07:25:20;9.43;;;7.25;;
20348;SDS011;10332;50.208;18.988;2022-07-22T07:27:51;11.38;;;7.97;;
20348;SDS011;10332;50.208;18.988;2022-07-22T07:30:20;12.93;;;8.23;;
20348;SDS011;10332;50.208;18.988;2022-07-22T07:32:48;10.18;;;8.27;;
20348;SDS011;10332;50.208;18.988;2022-07-22T07:35:16;9.35;;;7.20;;
20348;SDS011;10332;50.208;18.988;2022-07-22T07:37:43;8.50;;;7.70;;
20348;SDS011;10332;50.208;18.988;2022-07-22T07:40:11;8.30;;;7.07;;
20348;SDS011;10332;50.208;18.988;2022-07-22T07:42:39;9.13;;;7.47;;
20348;SDS011;10332;50.208;18.988;2022-07-22T07:45:13;7.47;;;6.78;;
20348;SDS011;10332;50.208;18.988;2022-07-22T07:47:41;9.23;;;6.93;;
20348;SDS011;10332;50.208;18.988;2022-07-22T07:50:08;7.45;;;6.65;;
20348;SDS011;10332;50.208;18.988;2022-07-22T07:52:41;9.43;;;8.43;;
20348;SDS011;10332;50.208;18.988;2022-07-22T07:55:44;7.40;;;6.47;;
20348;SDS011;10332;50.208;18.988;2022-07-22T07:58:13;8.10;;;7.18;;
20348;SDS011;10332;50.208;18.988;2022-07-22T08:00:40;7.93;;;7.05;;
20348;SDS011;10332;50.208;18.988;2022-07-22T08:03:09;10.50;;;7.60;;
20348;SDS011;10332;50.208;18.988;2022-07-22T08:05:37;7.20;;;6.50;;
20348;SDS011;10332;50.208;18.988;2022-07-22T08:08:06;9.82;;;7.05;;
20348;SDS011;10332;50.208;18.988;2022-07-22T08:10:41;9.00;;;7.18;;
20348;SDS011;10332;50.208;18.988;2022-07-22T08:13:27;9.18;;;7.15;;
20348;SDS011;10332;50.208;18.988;2022-07-22T08:15:55;9.40;;;7.15;;
20348;SDS011;10332;50.208;18.988;2022-07-22T08:18:24;6.97;;;6.25;;
20348;SDS011;10332;50.208;18.988;2022-07-22T08:20:53;7.07;;;6.38;;
20348;SDS011;10332;50.208;18.988;2022-07-22T08:23:21;9.57;;;6.63;;
20348;SDS011;10332;50.208;18.988;2022-07-22T08:25:49;7.43;;;6.40;;
20348;SDS011;10332;50.208;18.988;2022-07-22T08:28:16;8.10;;;6.88;;
20348;SDS011;10332;50.208;18.988;2022-07-22T08:30:44;7.65;;;6.53;;
20348;SDS011;10332;50.208;18.988;2022-07-22T08:33:11;8.73;;;6.88;;
20348;SDS011;10332;50.208;18.988;2022-07-22T08:35:39;8.07;;;6.43;;
20348;SDS011;10332;50.208;18.988;2022-07-22T08:38:07;8.02;;;6.28;;
20348;SDS011;10332;50.208;18.988;2022-07-22T08:40:35;6.88;;;5.65;;
20348;SDS011;10332;50.208;18.988;2022-07-22T08:43:02;8.82;;;7.57;;
20348;SDS011;10332;50.208;18.988;2022-07-22T08:45:31;6.93;;;6.22;;
20348;SDS011;10332;50.208;18.988;2022-07-22T08:47:58;8.30;;;6.57;;
20348;SDS011;10332;50.208;18.988;2022-07-22T08:50:30;8.95;;;7.32;;
20348;SDS011;10332;50.208;18.988;2022-07-22T08:52:58;10.55;;;6.93;;
20348;SDS011;10332;50.208;18.988;2022-07-22T08:55:25;6.68;;;6.07;;
20348;SDS011;10332;50.208;18.988;2022-07-22T08:57:52;7.63;;;6.57;;
20348;SDS011;10332;50.208;18.988;2022-07-22T09:00:20;8.80;;;6.95;;
20348;SDS011;10332;50.208;18.988;2022-07-22T09:02:49;7.50;;;6.47;;
20348;SDS011;10332;50.208;18.988;2022-07-22T09:05:17;10.13;;;7.60;;
20348;SDS011;10332;50.208;18.988;2022-07-22T09:08:05;9.43;;;7.00;;
20348;SDS011;10332;50.208;18.988;2022-07-22T09:10:33;10.73;;;7.97;;
20348;SDS011;10332;50.208;18.988;2022-07-22T09:13:03;9.00;;;7.03;;
20348;SDS011;10332;50.208;18.988;2022-07-22T09:15:34;8.50;;;6.85;;
20348;SDS011;10332;50.208;18.988;2022-07-22T09:18:06;7.03;;;6.32;;
20348;SDS011;10332;50.208;18.988;2022-07-22T09:20:34;7.20;;;6.07;;
20348;SDS011;10332;50.208;18.988;2022-07-22T09:23:11;8.95;;;7.85;;
20348;SDS011;10332;50.208;18.988;2022-07-22T09:25:41;9.43;;;7.20;;
20348;SDS011;10332;50.208;18.988;2022-07-22T09:30:45;7.93;;;6.60;;
20348;SDS011;10332;50.208;18.988;2022-07-22T09:33:22;9.60;;;7.25;;
20348;SDS011;10332;50.208;18.988;2022-07-22T09:35:50;7.25;;;6.55;;
20348;SDS011;10332;50.208;18.988;2022-07-22T09:38:20;10.23;;;7.00;;
20348;SDS011;10332;50.208;18.988;2022-07-22T09:40:55;9.68;;;6.18;;
20348;SDS011;10332;50.208;18.988;2022-07-22T09:43:24;8.63;;;7.13;;
20348;SDS011;10332;50.208;18.988;2022-07-22T09:45:56;6.28;;;5.63;;
20348;SDS011;10332;50.208;18.988;2022-07-22T09:48:25;6.28;;;5.68;;
20348;SDS011;10332;50.208;18.988;2022-07-22T09:50:54;6.20;;;5.60;;
20348;SDS011;10332;50.208;18.988;2022-07-22T09:53:24;5.47;;;4.97;;
20348;SDS011;10332;50.208;18.988;2022-07-22T09:55:57;8.23;;;6.22;;
20348;SDS011;10332;50.208;18.988;2022-07-22T09:58:27;6.30;;;5.70;;
20348;SDS011;10332;50.208;18.988;2022-07-22T10:00:58;6.38;;;5.22;;
20348;SDS011;10332;50.208;18.988;2022-07-22T10:03:30;5.57;;;5.07;;
20348;SDS011;10332;50.208;18.988;2022-07-22T10:06:04;7.50;;;5.60;;
20348;SDS011;10332;50.208;18.988;2022-07-22T10:08:33;6.35;;;5.65;;
20348;SDS011;10332;50.208;18.988;2022-07-22T10:11:04;5.88;;;5.28;;
20348;SDS011;10332;50.208;18.988;2022-07-22T10:13:34;5.22;;;4.80;;
20348;SDS011;10332;50.208;18.988;2022-07-22T10:16:04;5.90;;;5.20;;
20348;SDS011;10332;50.208;18.988;2022-07-22T10:18:33;5.07;;;4.63;;
20348;SDS011;10332;50.208;18.988;2022-07-22T10:21:05;4.85;;;4.45;;
20348;SDS011;10332;50.208;18.988;2022-07-22T10:24:06;4.65;;;4.25;;
20348;SDS011;10332;50.208;18.988;2022-07-22T10:26:56;4.00;;;3.67;;
20348;SDS011;10332;50.208;18.988;2022-07-22T10:29:26;5.20;;;4.70;;
20348;SDS011;10332;50.208;18.988;2022-07-22T10:34:44;4.93;;;4.43;;
20348;SDS011;10332;50.208;18.988;2022-07-22T10:37:47;5.28;;;4.88;;
20348;SDS011;10332;50.208;18.988;2022-07-22T10:40:21;5.13;;;4.72;;
20348;SDS011;10332;50.208;18.988;2022-07-22T10:45:39;5.22;;;4.75;;
20348;SDS011;10332;50.208;18.988;2022-07-22T10:48:20;6.10;;;4.70;;
20348;SDS011;10332;50.208;18.988;2022-07-22T10:50:54;5.07;;;4.60;;
20348;SDS011;10332;50.208;18.988;2022-07-22T10:59:07;4.82;;;4.43;;
20348;SDS011;10332;50.208;18.988;2022-07-22T11:01:44;5.53;;;5.03;;
20348;SDS011;10332;50.208;18.988;2022-07-22T11:04:19;5.70;;;5.20;;
20348;SDS011;10332;50.208;18.988;2022-07-22T11:06:53;5.18;;;4.53;;
20348;SDS011;10332;50.208;18.988;2022-07-22T11:09:29;5.00;;;4.60;;
20348;SDS011;10332;50.208;18.988;2022-07-22T11:12:00;5.18;;;4.28;;
20348;SDS011;10332;50.208;18.988;2022-07-22T11:14:28;5.05;;;4.65;;
20348;SDS011;10332;50.208;18.988;2022-07-22T11:17:05;5.80;;;5.20;;
20348;SDS011;10332;50.208;18.988;2022-07-22T11:19:36;9.20;;;6.00;;
20348;SDS011;10332;50.208;18.988;2022-07-22T11:24:34;6.55;;;5.95;;
20348;SDS011;10332;50.208;18.988;2022-07-22T11:27:06;6.40;;;5.90;;
20348;SDS011;10332;50.208;18.988;2022-07-22T11:29:40;7.00;;;6.28;;
20348;SDS011;10332;50.208;18.988;2022-07-22T11:32:13;6.30;;;5.65;;
20348;SDS011;10332;50.208;18.988;2022-07-22T11:34:42;6.22;;;5.43;;
20348;SDS011;10332;50.208;18.988;2022-07-22T11:37:12;6.45;;;5.63;;
20348;SDS011;10332;50.208;18.988;2022-07-22T11:40:00;6.45;;;5.30;;
20348;SDS011;10332;50.208;18.988;2022-07-22T11:42:34;6.60;;;5.90;;
20348;SDS011;10332;50.208;18.988;2022-07-22T11:45:02;5.60;;;5.03;;
20348;SDS011;10332;50.208;18.988;2022-07-22T11:47:31;7.60;;;5.88;;
20348;SDS011;10332;50.208;18.988;2022-07-22T11:49:58;5.80;;;5.30;;
20348;SDS011;10332;50.208;18.988;2022-07-22T11:52:26;7.22;;;5.70;;
20348;SDS011;10332;50.208;18.988;2022-07-22T11:54:53;5.38;;;4.93;;
20348;SDS011;10332;50.208;18.988;2022-07-22T11:57:21;6.38;;;5.47;;
20348;SDS011;10332;50.208;18.988;2022-07-22T11:59:48;7.40;;;6.07;;
20348;SDS011;10332;50.208;18.988;2022-07-22T12:02:15;6.90;;;6.00;;
20348;SDS011;10332;50.208;18.988;2022-07-22T12:04:43;6.20;;;5.70;;
20348;SDS011;10332;50.208;18.988;2022-07-22T12:07:14;6.32;;;5.72;;
20348;SDS011;10332;50.208;18.988;2022-07-22T12:09:42;6.22;;;5.63;;
20348;SDS011;10332;50.208;18.988;2022-07-22T12:12:11;6.65;;;5.95;;
20348;SDS011;10332;50.208;18.988;2022-07-22T12:14:44;8.05;;;6.80;;
20348;SDS011;10332;50.208;18.988;2022-07-22T12:17:14;6.35;;;5.78;;
20348;SDS011;10332;50.208;18.988;2022-07-22T12:19:42;9.07;;;6.18;;
20348;SDS011;10332;50.208;18.988;2022-07-22T12:22:11;6.70;;;6.00;;
20348;SDS011;10332;50.208;18.988;2022-07-22T12:24:56;6.70;;;5.97;;
20348;SDS011;10332;50.208;18.988;2022-07-22T12:27:27;6.43;;;5.88;;
20348;SDS011;10332;50.208;18.988;2022-07-22T12:29:56;6.60;;;6.00;;
20348;SDS011;10332;50.208;18.988;2022-07-22T12:42:28;7.00;;;6.30;;
20348;SDS011;10332;50.208;18.988;2022-07-22T12:47:40;6.78;;;6.13;;
20348;SDS011;10332;50.208;18.988;2022-07-22T12:50:23;6.70;;;5.95;;
20348;SDS011;10332;50.208;18.988;2022-07-22T12:52:58;6.80;;;6.20;;
20348;SDS011;10332;50.208;18.988;2022-07-22T12:55:53;7.55;;;6.00;;
20348;SDS011;10332;50.208;18.988;2022-07-22T12:58:27;7.50;;;6.80;;
20348;SDS011;10332;50.208;18.988;2022-07-22T13:00:58;8.00;;;6.57;;
20348;SDS011;10332;50.208;18.988;2022-07-22T13:03:28;8.93;;;6.88;;
20348;SDS011;10332;50.208;18.988;2022-07-22T13:05:58;7.40;;;6.70;;
20348;SDS011;10332;50.208;18.988;2022-07-22T13:08:33;9.25;;;7.70;;
20348;SDS011;10332;50.208;18.988;2022-07-22T13:11:11;7.88;;;7.15;;
20348;SDS011;10332;50.208;18.988;2022-07-22T13:13:40;8.57;;;7.32;;
20348;SDS011;10332;50.208;18.988;2022-07-22T13:16:09;7.65;;;6.80;;
20348;SDS011;10332;50.208;18.988;2022-07-22T13:18:38;7.63;;;6.60;;
20348;SDS011;10332;50.208;18.988;2022-07-22T13:21:06;7.70;;;6.97;;
20348;SDS011;10332;50.208;18.988;2022-07-22T13:23:33;8.45;;;6.97;;
20348;SDS011;10332;50.208;18.988;2022-07-22T13:26:00;8.00;;;7.20;;
20348;SDS011;10332;50.208;18.988;2022-07-22T13:28:27;8.65;;;7.75;;
20348;SDS011;10332;50.208;18.988;2022-07-22T13:30:55;9.23;;;7.35;;
20348;SDS011;10332;50.208;18.988;2022-07-22T13:33:22;8.20;;;6.97;;
20348;SDS011;10332;50.208;18.988;2022-07-22T13:35:50;8.27;;;7.47;;
20348;SDS011;10332;50.208;18.988;2022-07-22T13:38:17;6.78;;;6.18;;
20348;SDS011;10332;50.208;18.988;2022-07-22T13:40:44;7.13;;;6.25;;
20348;SDS011;10332;50.208;18.988;2022-07-22T13:43:19;7.18;;;6.55;;
20348;SDS011;10332;50.208;18.988;2022-07-22T13:45:49;7.22;;;6.53;;
20348;SDS011;10332;50.208;18.988;2022-07-22T13:48:19;7.82;;;7.03;;
20348;SDS011;10332;50.208;18.988;2022-07-22T13:50:47;7.28;;;6.57;;
20348;SDS011;10332;50.208;18.988;2022-07-22T13:53:15;6.72;;;6.22;;
20348;SDS011;10332;50.208;18.988;2022-07-22T13:55:42;7.05;;;6.35;;
20348;SDS011;10332;50.208;18.988;2022-07-22T13:58:09;8.07;;;6.35;;
20348;SDS011;10332;50.208;18.988;2022-07-22T14:00:37;7.00;;;6.40;;
20348;SDS011;10332;50.208;18.988;2022-07-22T14:03:06;7.05;;;6.35;;
20348;SDS011;10332;50.208;18.988;2022-07-22T14:05:34;7.15;;;6.45;;
20348;SDS011;10332;50.208;18.988;2022-07-22T14:08:01;7.68;;;6.80;;
20348;SDS011;10332;50.208;18.988;2022-07-22T14:10:29;7.93;;;7.00;;
20348;SDS011;10332;50.208;18.988;2022-07-22T14:12:56;6.75;;;6.15;;
20348;SDS011;10332;50.208;18.988;2022-07-22T14:15:23;7.38;;;6.68;;
20348;SDS011;10332;50.208;18.988;2022-07-22T14:17:51;7.05;;;6.45;;
20348;SDS011;10332;50.208;18.988;2022-07-22T14:20:19;7.18;;;6.07;;
20348;SDS011;10332;50.208;18.988;2022-07-22T14:22:46;7.20;;;6.50;;
20348;SDS011;10332;50.208;18.988;2022-07-22T14:25:14;7.85;;;6.50;;
20348;SDS011;10332;50.208;18.988;2022-07-22T14:27:41;6.78;;;6.07;;
20348;SDS011;10332;50.208;18.988;2022-07-22T14:30:08;7.13;;;6.43;;
20348;SDS011;10332;50.208;18.988;2022-07-22T14:32:36;6.40;;;5.80;;
20348;SDS011;10332;50.208;18.988;2022-07-22T14:35:04;6.32;;;5.72;;
20348;SDS011;10332;50.208;18.988;2022-07-22T14:37:32;6.50;;;6.00;;
20348;SDS011;10332;50.208;18.988;2022-07-22T14:40:00;5.70;;;5.15;;
20348;SDS011;10332;50.208;18.988;2022-07-22T14:42:29;6.20;;;5.60;;
20348;SDS011;10332;50.208;18.988;2022-07-22T14:44:56;6.15;;;5.55;;
20348;SDS011;10332;50.208;18.988;2022-07-22T14:47:23;6.43;;;5.90;;
20348;SDS011;10332;50.208;18.988;2022-07-22T14:49:52;5.80;;;5.30;;
20348;SDS011;10332;50.208;18.988;2022-07-22T14:52:20;5.70;;;5.10;;
20348;SDS011;10332;50.208;18.988;2022-07-22T14:54:47;5.57;;;5.07;;
20348;SDS011;10332;50.208;18.988;2022-07-22T14:57:14;5.72;;;5.22;;
20348;SDS011;10332;50.208;18.988;2022-07-22T14:59:41;6.28;;;5.63;;
20348;SDS011;10332;50.208;18.988;2022-07-22T15:02:09;6.25;;;5.60;;
20348;SDS011;10332;50.208;18.988;2022-07-22T15:04:36;6.35;;;5.13;;
20348;SDS011;10332;50.208;18.988;2022-07-22T15:07:03;5.03;;;4.63;;
20348;SDS011;10332;50.208;18.988;2022-07-22T15:09:31;6.57;;;5.72;;
20348;SDS011;10332;50.208;18.988;2022-07-22T15:11:58;9.05;;;6.00;;
20348;SDS011;10332;50.208;18.988;2022-07-22T15:14:26;6.13;;;5.53;;